Patcona II — WDC2170 — position and weather

sailwx.info

Track history (hours):
 
Tides and Currents Weather Stations Pressure Air Temp Water Temp Dewpoint Dewpoint Depression Visibility Wind Speed Wind Dir Waves Ship Positions

Patcona II

Owner: Connolly-Pacific Co, long beach, CA. More information available from US FCC via Universal Licensing System and Coast Guard Vessel Documentation Center.

Last reported at 2015-Mar-02 14:34 UTC. Time now 2015-Mar-02 15:06 UTC.
Position N 29°44' W 095°17'.

; draft 9 m.

Type: Towing. MMSI: 366988960.

Date/timePositionNaut miles runAvg speedWind from/ knotsBaromVisibWave heightAir tempDewpointWater temp
2015-Mar-02 14:34N 29°44' W 095°17'11954302903.8
2015-Mar-02 14:33N 33°46' W 118°13'0 0.0
2015-Mar-02 13:33N 33°46' W 118°13'0 0.0
2015-Mar-02 12:33N 33°46' W 118°13'0 0.0
2015-Mar-02 11:33N 33°46' W 118°13'0 0.0
2015-Mar-02 10:33N 33°46' W 118°13'0 0.0
2015-Mar-02 09:33N 33°46' W 118°13'0 0.0
2015-Mar-02 08:33N 33°46' W 118°13'0 0.0
2015-Mar-02 07:33N 33°46' W 118°13'0 0.0
2015-Mar-02 06:33N 33°46' W 118°13'0 0.0
2015-Mar-02 05:33N 33°46' W 118°13'0 0.0
2015-Mar-02 04:33N 33°46' W 118°13'0 0.0
2015-Mar-02 03:33N 33°46' W 118°13'1198134751.9
2015-Mar-02 03:33N 29°43' W 095°14'11981188.2
2015-Mar-02 02:32N 33°46' W 118°13'11984028.2
2015-Mar-02 02:14N 29°44' W 095°13'11981747.3
2015-Mar-02 01:33N 33°46' W 118°13'119882965.5
2015-Mar-02 01:32N 29°44' W 095°13'11981163.5
2015-Mar-02 00:31N 33°46' W 118°13'119816985.0
2015-Mar-02 00:26N 29°44' W 095°13'11981349.9
2015-Mar-01 23:33N 33°46' W 118°13'1198105224.4
2015-Mar-01 23:32N 29°44' W 095°13'11981219.0
2015-Mar-01 22:33N 33°46' W 118°13'119873122.4
2015-Mar-01 22:33N 29°44' W 095°13'11981184.6
2015-Mar-01 21:32N 33°46' W 118°13'119813439.9
2015-Mar-01 21:26N 29°44' W 095°13'11981357.5
2015-Mar-01 20:33N 33°46' W 118°13'0 0.0
2015-Mar-01 19:33N 33°46' W 118°13'0 0.0
2015-Mar-01 18:33N 33°46' W 118°13'11994158.6
2015-Mar-01 18:16N 29°44' W 095°12'11991679.0
2015-Mar-01 17:33N 33°46' W 118°13'1203227978.9
2015-Mar-01 17:33N 29°44' W 095°07'12031213.3
2015-Mar-01 16:34N 33°46' W 118°13'0 0.0
2015-Mar-01 15:33N 33°46' W 118°13'120368760.8
2015-Mar-01 15:32N 29°47' W 095°06'12031224.7
2015-Mar-01 14:33N 33°46' W 118°13'120368760.7
2015-Mar-01 14:32N 29°47' W 095°06'12031221.3
2015-Mar-01 13:33N 33°46' W 118°13'120383306.4
2015-Mar-01 13:32N 29°47' W 095°06'12031224.4
2015-Mar-01 12:33N 33°46' W 118°13'120369869.9
2015-Mar-01 12:32N 29°47' W 095°06'12031224.7
2015-Mar-01 11:34N 33°46' W 118°13'120317538.2
2015-Mar-01 11:29N 29°47' W 095°06'12031291.6
2015-Mar-01 10:33N 33°46' W 118°13'120366644.8
2015-Mar-01 10:32N 29°47' W 095°06'12031225.4
2015-Mar-01 09:33N 33°46' W 118°13'120317681.4
2015-Mar-01 09:29N 29°47' W 095°06'12031291.6
2015-Mar-01 08:34N 33°46' W 118°13'120368760.7
2015-Mar-01 08:32N 29°47' W 095°06'12031214.1
2015-Mar-01 07:33N 33°46' W 118°13'1203135372.9
2015-Mar-01 07:32N 29°47' W 095°06'12031224.7
2015-Mar-01 06:34N 33°46' W 118°13'120363704.8
2015-Mar-01 06:32N 29°47' W 095°06'12031226.1
2015-Mar-01 05:33N 33°46' W 118°13'120317826.9
2015-Mar-01 05:29N 29°47' W 095°06'0 0.0
2015-Mar-01 04:32N 29°47' W 095°06'120352828.4
2015-Mar-01 04:31N 33°46' W 118°13'0 0.0
2015-Mar-01 03:33N 33°46' W 118°13'120381734.5
2015-Mar-01 03:32N 29°47' W 095°06'0 0.0
2015-Mar-01 02:32N 29°47' W 095°06'1203105657.3
2015-Mar-01 02:32N 33°46' W 118°13'0 0.0
2015-Mar-01 01:33N 33°46' W 118°13'120362782.0
2015-Mar-01 01:32N 29°47' W 095°06'0 0.0
2015-Mar-01 00:32N 29°47' W 095°06'1203866387.4
2015-Mar-01 00:32N 33°46' W 118°13'0 0.0
2015-Feb-28 23:33N 33°46' W 118°13'120311645.0
2015-Feb-28 23:26N 29°47' W 095°06'12031245.2
2015-Feb-28 22:28N 33°46' W 118°13'12033586.1
2015-Feb-28 22:08N 29°47' W 095°06'12032013.9
2015-Feb-28 21:32N 33°46' W 118°13'12035950.5
2015-Feb-28 21:20N 29°47' W 095°06'0 0.0
2015-Feb-28 20:32N 29°47' W 095°06'120324754.0
2015-Feb-28 20:29N 33°46' W 118°13'12031201.7
2015-Feb-28 19:29N 29°47' W 095°06'12037667.2
2015-Feb-28 19:20N 33°46' W 118°13'0 0.0
2015-Feb-28 18:33N 33°46' W 118°13'12035525.5
2015-Feb-28 18:20N 29°47' W 095°06'12031501.0
2015-Feb-28 17:32N 33°46' W 118°13'120314439.9
2015-Feb-28 17:27N 29°47' W 095°06'12031341.6
2015-Feb-28 16:34N 33°46' W 118°13'12042167488.6
2015-Feb-28 16:33N 29°46' W 095°05'12041201.2
2015-Feb-28 15:33N 33°46' W 118°13'12045794.1
2015-Feb-28 15:21N 29°45' W 095°06'12041478.2
2015-Feb-28 14:32N 33°46' W 118°13'120414256.6
2015-Feb-28 14:27N 29°45' W 095°06'12041351.4
2015-Feb-28 13:33N 33°46' W 118°13'1204123828.9
2015-Feb-28 13:33N 29°45' W 095°06'12041206.6
2015-Feb-28 12:33N 33°46' W 118°13'1204866798.9
2015-Feb-28 12:33N 29°45' W 095°06'0 0.0
2015-Feb-28 11:33N 29°45' W 095°06'120426919.2
2015-Feb-28 11:30N 33°46' W 118°13'12041260.2
2015-Feb-28 10:33N 29°45' W 095°06'120415314.5
2015-Feb-28 10:28N 33°46' W 118°13'0 0.0
2015-Feb-28 09:33N 33°46' W 118°13'1204866795.3
2015-Feb-28 09:33N 29°45' W 095°06'0 0.0
2015-Feb-28 08:33N 29°45' W 095°06'12042593.7
2015-Feb-28 08:05N 33°46' W 118°13'12042218.2
2015-Feb-28 07:32N 29°45' W 095°06'120445149.3
2015-Feb-28 07:31N 33°46' W 118°13'12031243.8
2015-Feb-28 06:33N 29°47' W 095°06'12033123.3
2015-Feb-28 06:10N 33°46' W 118°13'0 0.0
2015-Feb-28 05:31N 33°46' W 118°13'120317122.6
2015-Feb-28 05:27N 29°47' W 095°06'0 0.0
2015-Feb-28 04:33N 29°47' W 095°06'120324066.7
2015-Feb-28 04:30N 33°46' W 118°13'12031264.8
2015-Feb-28 03:33N 29°47' W 095°06'120398454.7
2015-Feb-28 03:32N 33°46' W 118°13'0 0.0
2015-Feb-28 02:33N 33°46' W 118°13'120396266.8
2015-Feb-28 02:33N 29°47' W 095°06'0 0.0
2015-Feb-28 01:33N 29°47' W 095°06'1203433200.8
2015-Feb-28 01:33N 33°46' W 118°13'0 0.0
2015-Feb-28 00:33N 33°46' W 118°13'12027049.4
2015-Feb-28 00:23N 29°44' W 095°08'12021454.4
2015-Feb-27 23:33N 33°46' W 118°13'1203866043.5
2015-Feb-27 23:33N 29°44' W 095°08'12031185.1
2015-Feb-27 22:32N 33°46' W 118°13'12033289.3
2015-Feb-27 22:10N 29°47' W 095°06'12031865.6
2015-Feb-27 21:32N 33°46' W 118°13'120322330.0
2015-Feb-27 21:28N 29°47' W 095°06'12031267.8
2015-Feb-27 20:31N 33°46' W 118°13'12035958.8
2015-Feb-27 20:19N 29°47' W 095°06'12031567.3
2015-Feb-27 19:33N 33°46' W 118°13'120337026.6
2015-Feb-27 19:31N 29°47' W 095°06'12031240.2
2015-Feb-27 18:33N 33°46' W 118°13'120340111.5
2015-Feb-27 18:31N 29°47' W 095°06'12031248.1
2015-Feb-27 17:33N 33°46' W 118°13'120416173.0
2015-Feb-27 17:29N 29°45' W 095°06'12041300.4
2015-Feb-27 16:33N 33°46' W 118°13'1203866081.9
2015-Feb-27 16:33N 29°46' W 095°07'0 0.2
2015-Feb-27 15:31N 29°46' W 095°07'1203108243.1
2015-Feb-27 15:30N 33°46' W 118°13'0 0.0
2015-Feb-27 14:33N 33°46' W 118°13'120332311.4
2015-Feb-27 14:31N 29°46' W 095°07'12031260.1
2015-Feb-27 13:33N 33°46' W 118°13'0 0.0
2015-Feb-27 12:33N 33°46' W 118°13'0 0.0
2015-Feb-27 11:33N 33°46' W 118°13'0 0.0
2015-Feb-27 10:33N 33°46' W 118°13'0 0.0
2015-Feb-27 09:33N 33°46' W 118°13'0 0.0
2015-Feb-27 08:33N 33°46' W 118°13'0 0.0
2015-Feb-27 07:33N 33°46' W 118°13'0 0.0
2015-Feb-27 06:33N 33°46' W 118°13'0 0.0
2015-Feb-27 05:33N 33°46' W 118°13'0 0.0
2015-Feb-27 04:33N 33°46' W 118°13'0 0.0
2015-Feb-27 03:33N 33°46' W 118°13'0 0.0
2015-Feb-27 02:34N 33°46' W 118°13'0 0.0
2015-Feb-27 01:33N 33°46' W 118°13'0 0.0
2015-Feb-27 00:33N 33°46' W 118°13'0 0.0
2015-Feb-26 23:33N 33°46' W 118°13'12036452.9
2015-Feb-26 23:22N 29°46' W 095°07'12031463.8
2015-Feb-26 22:33N 33°46' W 118°13'12035918.1
2015-Feb-26 22:21N 29°47' W 095°06'3 3.6
2015-Feb-26 21:33N 29°45' W 095°04'120663841.5
2015-Feb-26 21:32N 33°46' W 118°13'12121235.7
2015-Feb-26 20:33N 29°39' W 094°58'1212150461.3
2015-Feb-26 20:33N 33°46' W 118°13'0 0.0
2015-Feb-26 19:33N 33°46' W 118°13'12241223.5
2015-Feb-26 18:33N 29°25' W 094°50'12245189.6
2015-Feb-26 18:19N 33°46' W 118°13'6824.7
2015-Feb-26 15:33N 34°32' W 119°14'6851.8
2015-Feb-26 14:14N 33°46' W 118°13'0 0.0
2015-Feb-26 13:31N 33°46' W 118°13'0 0.0
2015-Feb-26 12:32N 33°46' W 118°13'0 0.0
2015-Feb-26 11:28N 33°46' W 118°13'0 0.0
2015-Feb-26 10:32N 33°46' W 118°13'0 0.0
2015-Feb-26 09:33N 33°46' W 118°13'0 0.0
2015-Feb-26 08:33N 33°46' W 118°13'0 0.0
2015-Feb-26 07:33N 33°46' W 118°13'0 0.0
2015-Feb-26 06:33N 33°46' W 118°13'0 0.0
2015-Feb-26 05:33N 33°46' W 118°13'0 0.0
2015-Feb-26 04:33N 33°46' W 118°13'0 0.0
2015-Feb-26 03:33N 33°46' W 118°13'0 0.0
2015-Feb-26 02:33N 33°46' W 118°13'0 0.0
2015-Feb-26 01:33N 33°46' W 118°13'0 0.0
2015-Feb-26 00:33N 33°46' W 118°13'0 0.0
2015-Feb-25 23:33N 33°46' W 118°13'0 0.0
2015-Feb-25 22:32N 33°46' W 118°13'0 0.0
2015-Feb-25 21:32N 33°46' W 118°13'0 0.0
2015-Feb-25 20:33N 33°46' W 118°13'0 0.0
2015-Feb-25 19:33N 33°46' W 118°13'0 0.0
2015-Feb-25 18:33N 33°46' W 118°13'0 0.0
2015-Feb-25 17:32N 33°46' W 118°13'0 0.0
2015-Feb-25 16:33N 33°46' W 118°13'122142257.0
2015-Feb-25 16:31N 29°22' W 094°54'12211264.3
2015-Feb-25 15:33N 33°46' W 118°13'0 0.0
2015-Feb-25 14:33N 33°46' W 118°13'0 0.0
2015-Feb-25 13:30N 33°46' W 118°13'12205267.9
2015-Feb-25 13:16N 29°22' W 094°55'0 0.0
2015-Feb-25 12:33N 29°22' W 094°55'122099850.9
2015-Feb-25 12:33N 33°46' W 118°13'12201228.9
2015-Feb-25 11:33N 29°22' W 094°55'1220732241.4
2015-Feb-25 11:33N 33°46' W 118°13'0 0.0
2015-Feb-25 10:33N 33°46' W 118°13'122046246.8
2015-Feb-25 10:32N 29°22' W 094°55'12201257.4
2015-Feb-25 09:33N 33°46' W 118°13'122042244.8
2015-Feb-25 09:32N 29°22' W 094°55'0 0.0
2015-Feb-25 08:33N 29°22' W 094°55'1220274590.5
2015-Feb-25 08:33N 33°46' W 118°13'12201233.1
2015-Feb-25 07:33N 29°22' W 094°55'122012697.8
2015-Feb-25 07:28N 33°46' W 118°13'0 0.0
2015-Feb-25 06:33N 33°46' W 118°13'0 0.0
2015-Feb-25 05:33N 33°46' W 118°13'12207167.1
2015-Feb-25 05:23N 29°22' W 094°55'12201486.3
2015-Feb-25 04:33N 33°46' W 118°13'122318739.9
2015-Feb-25 04:30N 29°22' W 094°51'12231308.7
2015-Feb-25 03:33N 33°46' W 118°13'0 0.0
2015-Feb-25 02:33N 33°46' W 118°13'0 0.0
2015-Feb-25 01:33N 33°46' W 118°13'0 0.0
2015-Feb-25 00:33N 33°46' W 118°13'0 0.0
2015-Feb-24 23:33N 33°46' W 118°13'0 0.0
2015-Feb-24 22:33N 33°46' W 118°13'0 0.0
2015-Feb-24 21:33N 33°46' W 118°13'0 0.0
2015-Feb-24 20:33N 33°46' W 118°13'0 0.0
2015-Feb-24 19:33N 33°46' W 118°13'0 0.0
2015-Feb-24 18:33N 33°46' W 118°13'0 0.0
2015-Feb-24 17:33N 33°46' W 118°13'0 0.0
2015-Feb-24 16:33N 33°46' W 118°13'0 0.0
2015-Feb-24 15:33N 33°46' W 118°13'0 0.0
2015-Feb-24 14:33N 33°46' W 118°13'0 0.0
2015-Feb-24 13:33N 33°46' W 118°13'0 0.0
2015-Feb-24 12:33N 33°46' W 118°13'0 0.0
2015-Feb-24 11:33N 33°46' W 118°13'0 0.0
2015-Feb-24 10:33N 33°46' W 118°13'0 0.0
2015-Feb-24 09:33N 33°46' W 118°13'0 0.0
2015-Feb-24 08:33N 33°46' W 118°13'0 0.0
2015-Feb-24 07:33N 33°46' W 118°13'0 0.0
2015-Feb-24 06:32N 33°46' W 118°13'0 0.0
2015-Feb-24 05:33N 33°46' W 118°13'0 0.0
2015-Feb-24 04:33N 33°46' W 118°13'0 0.0
2015-Feb-24 03:29N 33°46' W 118°13'0 0.0
2015-Feb-24 02:28N 33°46' W 118°13'0 0.0
2015-Feb-24 01:33N 33°46' W 118°13'0 0.0
2015-Feb-24 00:33N 33°46' W 118°13'0 0.0
2015-Feb-23 23:32N 33°46' W 118°13'0 0.0
2015-Feb-23 22:33N 33°46' W 118°13'0 0.0
2015-Feb-23 21:33N 33°46' W 118°13'0 0.0
2015-Feb-23 20:33N 33°46' W 118°13'0 0.0
2015-Feb-23 19:33N 33°46' W 118°13'0 0.0
2015-Feb-23 18:33N 33°46' W 118°13'0 0.0
2015-Feb-23 17:33N 33°46' W 118°13'0 0.0
2015-Feb-23 16:32N 33°46' W 118°13'0 0.0
2015-Feb-23 15:32N 33°46' W 118°13'0 0.0
2015-Feb-23 14:33N 33°46' W 118°13'0 0.0
2015-Feb-23 13:32N 33°46' W 118°13'0 0.0
2015-Feb-23 12:27N 33°46' W 118°13'0 0.0
2015-Feb-23 11:33N 33°46' W 118°13'0 0.0
2015-Feb-23 10:32N 33°46' W 118°13'0 0.0
2015-Feb-23 09:30N 33°46' W 118°13'0 0.0
2015-Feb-23 08:33N 33°46' W 118°13'0 0.0
2015-Feb-23 07:33N 33°46' W 118°13'0 0.0
2015-Feb-23 06:33N 33°46' W 118°13'0 0.0
2015-Feb-23 05:33N 33°46' W 118°13'0 0.0
2015-Feb-23 04:33N 33°46' W 118°13'0 0.0
2015-Feb-23 03:33N 33°46' W 118°13'0 0.0
2015-Feb-23 02:32N 33°46' W 118°13'0 0.0
2015-Feb-23 01:33N 33°46' W 118°13'0 0.0
2015-Feb-23 00:32N 33°46' W 118°13'0 0.0
2015-Feb-22 23:33N 33°46' W 118°13'122610481.8
2015-Feb-22 23:26N 29°22' W 094°48'12261388.1
2015-Feb-22 22:33N 33°46' W 118°13'1221146492.0
2015-Feb-22 22:33N 29°29' W 094°52'12211231.0
2015-Feb-22 21:33N 33°46' W 118°13'12144371351.5
2015-Feb-22 21:33N 29°36' W 094°57'8 7.7
2015-Feb-22 20:33N 29°43' W 095°01'120988788.8
2015-Feb-22 20:33N 33°46' W 118°13'0 0.0
2015-Feb-22 19:33N 33°46' W 118°13'12032166158.5
2015-Feb-22 19:33N 29°46' W 095°06'0 0.3
2015-Feb-22 18:33N 29°47' W 095°06'1203240662.9
2015-Feb-22 18:33N 33°46' W 118°13'0 0.0
2015-Feb-22 17:33N 33°46' W 118°13'12032166089.7
2015-Feb-22 17:33N 29°46' W 095°06'0 0.2
2015-Feb-22 16:33N 29°47' W 095°06'120310911.6
2015-Feb-22 16:27N 33°46' W 118°13'12031347.8
2015-Feb-22 15:33N 29°47' W 095°06'1203160442.1
2015-Feb-22 15:33N 33°46' W 118°13'0 0.0
2015-Feb-22 14:33N 33°46' W 118°13'120347086.1
2015-Feb-22 14:32N 29°47' W 095°06'0 0.0
2015-Feb-22 13:33N 29°47' W 095°06'1203541490.7
2015-Feb-22 13:33N 33°46' W 118°13'12031206.0
2015-Feb-22 12:33N 29°47' W 095°06'1203240662.9
2015-Feb-22 12:33N 33°46' W 118°13'12031202.3
2015-Feb-22 11:33N 29°47' W 095°06'120374688.5
2015-Feb-22 11:32N 33°46' W 118°13'0 0.0
2015-Feb-22 10:33N 33°46' W 118°13'120359341.4
2015-Feb-22 10:32N 29°47' W 095°06'12031228.6
2015-Feb-22 09:33N 33°46' W 118°13'12031443975.3
2015-Feb-22 09:33N 29°47' W 095°06'12031204.0
2015-Feb-22 08:33N 33°46' W 118°13'12032165962.9
2015-Feb-22 08:33N 29°47' W 095°06'12031203.6
2015-Feb-22 07:33N 33°46' W 118°13'12034331925.8
2015-Feb-22 07:33N 29°47' W 095°06'0 0.0
2015-Feb-22 06:33N 29°47' W 095°06'1203254824.8
2015-Feb-22 06:33N 33°46' W 118°13'0 0.0
2015-Feb-22 05:33N 33°46' W 118°13'1204206328.1
2015-Feb-22 05:33N 29°44' W 095°07'4 4.1
2015-Feb-22 04:33N 29°45' W 095°11'1200479820.9
2015-Feb-22 04:33N 33°46' W 118°13'12001202.6
2015-Feb-22 03:33N 29°45' W 095°11'1200116713.2
2015-Feb-22 03:33N 33°46' W 118°13'12001211.7
2015-Feb-22 02:33N 29°45' W 095°11'1200616915.1
2015-Feb-22 02:33N 33°46' W 118°13'0 0.0
2015-Feb-22 01:33N 33°46' W 118°13'12002159203.0
2015-Feb-22 01:33N 29°45' W 095°11'12001200.6
2015-Feb-22 00:33N 33°46' W 118°13'12002159203.0
2015-Feb-22 00:33N 29°45' W 095°11'0 0.0
2015-Feb-21 23:33N 29°45' W 095°11'1200392582.4
2015-Feb-21 23:33N 33°46' W 118°13'0 0.1
2015-Feb-21 22:33N 33°46' W 118°13'12002159293.0
2015-Feb-21 22:33N 29°45' W 095°11'0 0.0
2015-Feb-21 21:33N 29°45' W 095°11'1200227283.6
2015-Feb-21 21:33N 33°46' W 118°13'11981207.1
2015-Feb-21 20:33N 29°43' W 095°14'1198615953.3
2015-Feb-21 20:33N 33°46' W 118°13'11961198.0
2015-Feb-21 19:33N 29°44' W 095°16'1196860881.6
2015-Feb-21 19:33N 33°46' W 118°13'11961197.7
2015-Feb-21 18:33N 29°44' W 095°16'119684399.8
2015-Feb-21 18:33N 33°46' W 118°13'0 0.0
2015-Feb-21 17:33N 33°46' W 118°13'11961195.7
2015-Feb-21 16:33N 29°44' W 095°16'1196391308.2
2015-Feb-21 16:33N 33°46' W 118°13'0 0.0
2015-Feb-21 15:34N 33°46' W 118°13'1196860878.0
2015-Feb-21 15:33N 29°44' W 095°16'0 0.5
2015-Feb-21 14:33N 29°44' W 095°16'11962153051.3
2015-Feb-21 14:33N 33°46' W 118°13'12001201.0
2015-Feb-21 13:33N 29°45' W 095°11'1200332297.0
2015-Feb-21 13:33N 33°46' W 118°13'12041208.5
2015-Feb-21 12:33N 29°46' W 095°06'12041083699.3
2015-Feb-21 12:33N 33°46' W 118°13'0 0.0
2015-Feb-21 11:33N 33°46' W 118°13'120334655.6
2015-Feb-21 11:31N 29°47' W 095°06'12031242.7
2015-Feb-21 10:33N 33°46' W 118°13'120336403.0
2015-Feb-21 10:31N 29°47' W 095°06'12031248.0
2015-Feb-21 09:33N 33°46' W 118°13'120333581.0
2015-Feb-21 09:31N 29°47' W 095°06'12031248.4
2015-Feb-21 08:33N 33°46' W 118°13'120334655.6
2015-Feb-21 08:31N 29°47' W 095°06'0 0.0
2015-Feb-21 07:31N 29°47' W 095°06'1203309424.9
2015-Feb-21 07:31N 33°46' W 118°13'0 0.0
2015-Feb-21 06:33N 33°46' W 118°13'120333322.7
2015-Feb-21 06:31N 29°47' W 095°06'12031248.8
2015-Feb-21 05:33N 33°46' W 118°13'120333843.2
2015-Feb-21 05:31N 29°47' W 095°06'12031244.1
2015-Feb-21 04:33N 33°46' W 118°13'120335507.8
2015-Feb-21 04:31N 29°47' W 095°06'12031252.0
2015-Feb-21 03:34N 33°46' W 118°13'120316790.6
2015-Feb-21 03:29N 29°47' W 095°06'1 1.2
2015-Feb-21 02:34N 29°46' W 095°05'1204166743.7
2015-Feb-21 02:33N 33°46' W 118°13'0 0.0
2015-Feb-21 01:33N 33°46' W 118°13'11991078948.0
2015-Feb-21 01:33N 29°44' W 095°12'11991200.2
2015-Feb-21 00:33N 33°46' W 118°13'119822699.1
2015-Feb-21 00:30N 29°44' W 095°14'11981266.2
2015-Feb-20 23:33N 33°46' W 118°13'119822346.2
2015-Feb-20 23:30N 29°44' W 095°14'11981262.2
2015-Feb-20 22:33N 33°46' W 118°13'119823568.4
2015-Feb-20 22:30N 29°44' W 095°14'11981265.9
2015-Feb-20 21:33N 33°46' W 118°13'1198239601.7
2015-Feb-20 21:33N 29°44' W 095°14'11981200.7
2015-Feb-20 20:33N 33°46' W 118°13'1198862564.3
2015-Feb-20 20:33N 29°44' W 095°14'11981203.0
2015-Feb-20 19:33N 33°46' W 118°13'119822231.0
2015-Feb-20 19:30N 29°44' W 095°14'0 0.0
2015-Feb-20 18:33N 29°44' W 095°14'119827296.3
2015-Feb-20 18:31N 33°46' W 118°13'11981254.5
2015-Feb-20 17:33N 29°44' W 095°14'11982156407.5
2015-Feb-20 17:33N 33°46' W 118°13'0 0.0
2015-Feb-20 16:34N 33°46' W 118°13'1198253696.4
2015-Feb-20 16:33N 29°44' W 095°14'11981200.0
2015-Feb-20 15:33N 33°46' W 118°13'119676891.4
2015-Feb-20 15:32N 29°43' W 095°16'  
Track history (hours):
 
Tides and Currents Weather Stations Pressure Air Temp Water Temp Dewpoint Dewpoint Depression Visibility Wind Speed Wind Dir Waves Ship Positions

Patcona II

Owner: Connolly-Pacific Co, long beach, CA. More information available from US FCC via Universal Licensing System and Coast Guard Vessel Documentation Center.

Last reported at 2015-Mar-02 14:34 UTC. Time now 2015-Mar-02 15:06 UTC.
Position N 29°44' W 095°17'.

; draft 9 m.

Type: Towing. MMSI: 366988960.

Date/timePositionNaut miles runAvg speedWind from/ knotsBaromVisibWave heightAir tempDewpointWater temp
2015-Mar-02 14:34N 29°44' W 095°17'11954302903.8
2015-Mar-02 14:33N 33°46' W 118°13'0 0.0
2015-Mar-02 13:33N 33°46' W 118°13'0 0.0
2015-Mar-02 12:33N 33°46' W 118°13'0 0.0
2015-Mar-02 11:33N 33°46' W 118°13'0 0.0
2015-Mar-02 10:33N 33°46' W 118°13'0 0.0
2015-Mar-02 09:33N 33°46' W 118°13'0 0.0
2015-Mar-02 08:33N 33°46' W 118°13'0 0.0
2015-Mar-02 07:33N 33°46' W 118°13'0 0.0
2015-Mar-02 06:33N 33°46' W 118°13'0 0.0
2015-Mar-02 05:33N 33°46' W 118°13'0 0.0
2015-Mar-02 04:33N 33°46' W 118°13'0 0.0
2015-Mar-02 03:33N 33°46' W 118°13'1198134751.9
2015-Mar-02 03:33N 29°43' W 095°14'11981188.2
2015-Mar-02 02:32N 33°46' W 118°13'11984028.2
2015-Mar-02 02:14N 29°44' W 095°13'11981747.3
2015-Mar-02 01:33N 33°46' W 118°13'119882965.5
2015-Mar-02 01:32N 29°44' W 095°13'11981163.5
2015-Mar-02 00:31N 33°46' W 118°13'119816985.0
2015-Mar-02 00:26N 29°44' W 095°13'11981349.9
2015-Mar-01 23:33N 33°46' W 118°13'1198105224.4
2015-Mar-01 23:32N 29°44' W 095°13'11981219.0
2015-Mar-01 22:33N 33°46' W 118°13'119873122.4
2015-Mar-01 22:33N 29°44' W 095°13'11981184.6
2015-Mar-01 21:32N 33°46' W 118°13'119813439.9
2015-Mar-01 21:26N 29°44' W 095°13'11981357.5
2015-Mar-01 20:33N 33°46' W 118°13'0 0.0
2015-Mar-01 19:33N 33°46' W 118°13'0 0.0
2015-Mar-01 18:33N 33°46' W 118°13'11994158.6
2015-Mar-01 18:16N 29°44' W 095°12'11991679.0
2015-Mar-01 17:33N 33°46' W 118°13'1203227978.9
2015-Mar-01 17:33N 29°44' W 095°07'12031213.3
2015-Mar-01 16:34N 33°46' W 118°13'0 0.0
2015-Mar-01 15:33N 33°46' W 118°13'120368760.8
2015-Mar-01 15:32N 29°47' W 095°06'12031224.7
2015-Mar-01 14:33N 33°46' W 118°13'120368760.7
2015-Mar-01 14:32N 29°47' W 095°06'12031221.3
2015-Mar-01 13:33N 33°46' W 118°13'120383306.4
2015-Mar-01 13:32N 29°47' W 095°06'12031224.4
2015-Mar-01 12:33N 33°46' W 118°13'120369869.9
2015-Mar-01 12:32N 29°47' W 095°06'12031224.7
2015-Mar-01 11:34N 33°46' W 118°13'120317538.2
2015-Mar-01 11:29N 29°47' W 095°06'12031291.6
2015-Mar-01 10:33N 33°46' W 118°13'120366644.8
2015-Mar-01 10:32N 29°47' W 095°06'12031225.4
2015-Mar-01 09:33N 33°46' W 118°13'120317681.4
2015-Mar-01 09:29N 29°47' W 095°06'12031291.6
2015-Mar-01 08:34N 33°46' W 118°13'120368760.7
2015-Mar-01 08:32N 29°47' W 095°06'12031214.1
2015-Mar-01 07:33N 33°46' W 118°13'1203135372.9
2015-Mar-01 07:32N 29°47' W 095°06'12031224.7
2015-Mar-01 06:34N 33°46' W 118°13'120363704.8
2015-Mar-01 06:32N 29°47' W 095°06'12031226.1
2015-Mar-01 05:33N 33°46' W 118°13'120317826.9
2015-Mar-01 05:29N 29°47' W 095°06'0 0.0
2015-Mar-01 04:32N 29°47' W 095°06'120352828.4
2015-Mar-01 04:31N 33°46' W 118°13'0 0.0
2015-Mar-01 03:33N 33°46' W 118°13'120381734.5
2015-Mar-01 03:32N 29°47' W 095°06'0 0.0
2015-Mar-01 02:32N 29°47' W 095°06'1203105657.3
2015-Mar-01 02:32N 33°46' W 118°13'0 0.0
2015-Mar-01 01:33N 33°46' W 118°13'120362782.0
2015-Mar-01 01:32N 29°47' W 095°06'0 0.0
2015-Mar-01 00:32N 29°47' W 095°06'1203866387.4
2015-Mar-01 00:32N 33°46' W 118°13'0 0.0
2015-Feb-28 23:33N 33°46' W 118°13'120311645.0
2015-Feb-28 23:26N 29°47' W 095°06'12031245.2
2015-Feb-28 22:28N 33°46' W 118°13'12033586.1
2015-Feb-28 22:08N 29°47' W 095°06'12032013.9
2015-Feb-28 21:32N 33°46' W 118°13'12035950.5
2015-Feb-28 21:20N 29°47' W 095°06'0 0.0
2015-Feb-28 20:32N 29°47' W 095°06'120324754.0
2015-Feb-28 20:29N 33°46' W 118°13'12031201.7
2015-Feb-28 19:29N 29°47' W 095°06'12037667.2
2015-Feb-28 19:20N 33°46' W 118°13'0 0.0
2015-Feb-28 18:33N 33°46' W 118°13'12035525.5
2015-Feb-28 18:20N 29°47' W 095°06'12031501.0
2015-Feb-28 17:32N 33°46' W 118°13'120314439.9
2015-Feb-28 17:27N 29°47' W 095°06'12031341.6
2015-Feb-28 16:34N 33°46' W 118°13'12042167488.6
2015-Feb-28 16:33N 29°46' W 095°05'12041201.2
2015-Feb-28 15:33N 33°46' W 118°13'12045794.1
2015-Feb-28 15:21N 29°45' W 095°06'12041478.2
2015-Feb-28 14:32N 33°46' W 118°13'120414256.6
2015-Feb-28 14:27N 29°45' W 095°06'12041351.4
2015-Feb-28 13:33N 33°46' W 118°13'1204123828.9
2015-Feb-28 13:33N 29°45' W 095°06'12041206.6
2015-Feb-28 12:33N 33°46' W 118°13'1204866798.9
2015-Feb-28 12:33N 29°45' W 095°06'0 0.0
2015-Feb-28 11:33N 29°45' W 095°06'120426919.2
2015-Feb-28 11:30N 33°46' W 118°13'12041260.2
2015-Feb-28 10:33N 29°45' W 095°06'120415314.5
2015-Feb-28 10:28N 33°46' W 118°13'0 0.0
2015-Feb-28 09:33N 33°46' W 118°13'1204866795.3
2015-Feb-28 09:33N 29°45' W 095°06'0 0.0
2015-Feb-28 08:33N 29°45' W 095°06'12042593.7
2015-Feb-28 08:05N 33°46' W 118°13'12042218.2
2015-Feb-28 07:32N 29°45' W 095°06'120445149.3
2015-Feb-28 07:31N 33°46' W 118°13'12031243.8
2015-Feb-28 06:33N 29°47' W 095°06'12033123.3
2015-Feb-28 06:10N 33°46' W 118°13'0 0.0
2015-Feb-28 05:31N 33°46' W 118°13'120317122.6
2015-Feb-28 05:27N 29°47' W 095°06'0 0.0
2015-Feb-28 04:33N 29°47' W 095°06'120324066.7
2015-Feb-28 04:30N 33°46' W 118°13'12031264.8
2015-Feb-28 03:33N 29°47' W 095°06'120398454.7
2015-Feb-28 03:32N 33°46' W 118°13'0 0.0
2015-Feb-28 02:33N 33°46' W 118°13'120396266.8
2015-Feb-28 02:33N 29°47' W 095°06'0 0.0
2015-Feb-28 01:33N 29°47' W 095°06'1203433200.8
2015-Feb-28 01:33N 33°46' W 118°13'0 0.0
2015-Feb-28 00:33N 33°46' W 118°13'12027049.4
2015-Feb-28 00:23N 29°44' W 095°08'12021454.4
2015-Feb-27 23:33N 33°46' W 118°13'1203866043.5
2015-Feb-27 23:33N 29°44' W 095°08'12031185.1
2015-Feb-27 22:32N 33°46' W 118°13'12033289.3
2015-Feb-27 22:10N 29°47' W 095°06'12031865.6
2015-Feb-27 21:32N 33°46' W 118°13'120322330.0
2015-Feb-27 21:28N 29°47' W 095°06'12031267.8
2015-Feb-27 20:31N 33°46' W 118°13'12035958.8
2015-Feb-27 20:19N 29°47' W 095°06'12031567.3
2015-Feb-27 19:33N 33°46' W 118°13'120337026.6
2015-Feb-27 19:31N 29°47' W 095°06'12031240.2
2015-Feb-27 18:33N 33°46' W 118°13'120340111.5
2015-Feb-27 18:31N 29°47' W 095°06'12031248.1
2015-Feb-27 17:33N 33°46' W 118°13'120416173.0
2015-Feb-27 17:29N 29°45' W 095°06'12041300.4
2015-Feb-27 16:33N 33°46' W 118°13'1203866081.9
2015-Feb-27 16:33N 29°46' W 095°07'0 0.2
2015-Feb-27 15:31N 29°46' W 095°07'1203108243.1
2015-Feb-27 15:30N 33°46' W 118°13'0 0.0
2015-Feb-27 14:33N 33°46' W 118°13'120332311.4
2015-Feb-27 14:31N 29°46' W 095°07'12031260.1
2015-Feb-27 13:33N 33°46' W 118°13'0 0.0
2015-Feb-27 12:33N 33°46' W 118°13'0 0.0
2015-Feb-27 11:33N 33°46' W 118°13'0 0.0
2015-Feb-27 10:33N 33°46' W 118°13'0 0.0
2015-Feb-27 09:33N 33°46' W 118°13'0 0.0
2015-Feb-27 08:33N 33°46' W 118°13'0 0.0
2015-Feb-27 07:33N 33°46' W 118°13'0 0.0
2015-Feb-27 06:33N 33°46' W 118°13'0 0.0
2015-Feb-27 05:33N 33°46' W 118°13'0 0.0
2015-Feb-27 04:33N 33°46' W 118°13'0 0.0
2015-Feb-27 03:33N 33°46' W 118°13'0 0.0
2015-Feb-27 02:34N 33°46' W 118°13'0 0.0
2015-Feb-27 01:33N 33°46' W 118°13'0 0.0
2015-Feb-27 00:33N 33°46' W 118°13'0 0.0
2015-Feb-26 23:33N 33°46' W 118°13'12036452.9
2015-Feb-26 23:22N 29°46' W 095°07'12031463.8
2015-Feb-26 22:33N 33°46' W 118°13'12035918.1
2015-Feb-26 22:21N 29°47' W 095°06'3 3.6
2015-Feb-26 21:33N 29°45' W 095°04'120663841.5
2015-Feb-26 21:32N 33°46' W 118°13'12121235.7
2015-Feb-26 20:33N 29°39' W 094°58'1212150461.3
2015-Feb-26 20:33N 33°46' W 118°13'0 0.0
2015-Feb-26 19:33N 33°46' W 118°13'12241223.5
2015-Feb-26 18:33N 29°25' W 094°50'12245189.6
2015-Feb-26 18:19N 33°46' W 118°13'6824.7
2015-Feb-26 15:33N 34°32' W 119°14'6851.8
2015-Feb-26 14:14N 33°46' W 118°13'0 0.0
2015-Feb-26 13:31N 33°46' W 118°13'0 0.0
2015-Feb-26 12:32N 33°46' W 118°13'0 0.0
2015-Feb-26 11:28N 33°46' W 118°13'0 0.0
2015-Feb-26 10:32N 33°46' W 118°13'0 0.0
2015-Feb-26 09:33N 33°46' W 118°13'0 0.0
2015-Feb-26 08:33N 33°46' W 118°13'0 0.0
2015-Feb-26 07:33N 33°46' W 118°13'0 0.0
2015-Feb-26 06:33N 33°46' W 118°13'0 0.0
2015-Feb-26 05:33N 33°46' W 118°13'0 0.0
2015-Feb-26 04:33N 33°46' W 118°13'0 0.0
2015-Feb-26 03:33N 33°46' W 118°13'0 0.0
2015-Feb-26 02:33N 33°46' W 118°13'0 0.0
2015-Feb-26 01:33N 33°46' W 118°13'0 0.0
2015-Feb-26 00:33N 33°46' W 118°13'0 0.0
2015-Feb-25 23:33N 33°46' W 118°13'0 0.0
2015-Feb-25 22:32N 33°46' W 118°13'0 0.0
2015-Feb-25 21:32N 33°46' W 118°13'0 0.0
2015-Feb-25 20:33N 33°46' W 118°13'0 0.0
2015-Feb-25 19:33N 33°46' W 118°13'0 0.0
2015-Feb-25 18:33N 33°46' W 118°13'0 0.0
2015-Feb-25 17:32N 33°46' W 118°13'0 0.0
2015-Feb-25 16:33N 33°46' W 118°13'122142257.0
2015-Feb-25 16:31N 29°22' W 094°54'12211264.3
2015-Feb-25 15:33N 33°46' W 118°13'0 0.0
2015-Feb-25 14:33N 33°46' W 118°13'0 0.0
2015-Feb-25 13:30N 33°46' W 118°13'12205267.9
2015-Feb-25 13:16N 29°22' W 094°55'0 0.0
2015-Feb-25 12:33N 29°22' W 094°55'122099850.9
2015-Feb-25 12:33N 33°46' W 118°13'12201228.9
2015-Feb-25 11:33N 29°22' W 094°55'1220732241.4
2015-Feb-25 11:33N 33°46' W 118°13'0 0.0
2015-Feb-25 10:33N 33°46' W 118°13'122046246.8
2015-Feb-25 10:32N 29°22' W 094°55'12201257.4
2015-Feb-25 09:33N 33°46' W 118°13'122042244.8
2015-Feb-25 09:32N 29°22' W 094°55'0 0.0
2015-Feb-25 08:33N 29°22' W 094°55'1220274590.5
2015-Feb-25 08:33N 33°46' W 118°13'12201233.1
2015-Feb-25 07:33N 29°22' W 094°55'122012697.8
2015-Feb-25 07:28N 33°46' W 118°13'0 0.0
2015-Feb-25 06:33N 33°46' W 118°13'0 0.0
2015-Feb-25 05:33N 33°46' W 118°13'12207167.1
2015-Feb-25 05:23N 29°22' W 094°55'12201486.3
2015-Feb-25 04:33N 33°46' W 118°13'122318739.9
2015-Feb-25 04:30N 29°22' W 094°51'12231308.7
2015-Feb-25 03:33N 33°46' W 118°13'0 0.0
2015-Feb-25 02:33N 33°46' W 118°13'0 0.0
2015-Feb-25 01:33N 33°46' W 118°13'0 0.0
2015-Feb-25 00:33N 33°46' W 118°13'0 0.0
2015-Feb-24 23:33N 33°46' W 118°13'0 0.0
2015-Feb-24 22:33N 33°46' W 118°13'0 0.0
2015-Feb-24 21:33N 33°46' W 118°13'0 0.0
2015-Feb-24 20:33N 33°46' W 118°13'0 0.0
2015-Feb-24 19:33N 33°46' W 118°13'0 0.0
2015-Feb-24 18:33N 33°46' W 118°13'0 0.0
2015-Feb-24 17:33N 33°46' W 118°13'0 0.0
2015-Feb-24 16:33N 33°46' W 118°13'0 0.0
2015-Feb-24 15:33N 33°46' W 118°13'0 0.0
2015-Feb-24 14:33N 33°46' W 118°13'0 0.0
2015-Feb-24 13:33N 33°46' W 118°13'0 0.0
2015-Feb-24 12:33N 33°46' W 118°13'0 0.0
2015-Feb-24 11:33N 33°46' W 118°13'0 0.0
2015-Feb-24 10:33N 33°46' W 118°13'0 0.0
2015-Feb-24 09:33N 33°46' W 118°13'0 0.0
2015-Feb-24 08:33N 33°46' W 118°13'0 0.0
2015-Feb-24 07:33N 33°46' W 118°13'0 0.0
2015-Feb-24 06:32N 33°46' W 118°13'0 0.0
2015-Feb-24 05:33N 33°46' W 118°13'0 0.0
2015-Feb-24 04:33N 33°46' W 118°13'0 0.0
2015-Feb-24 03:29N 33°46' W 118°13'0 0.0
2015-Feb-24 02:28N 33°46' W 118°13'0 0.0
2015-Feb-24 01:33N 33°46' W 118°13'0 0.0
2015-Feb-24 00:33N 33°46' W 118°13'0 0.0
2015-Feb-23 23:32N 33°46' W 118°13'0 0.0
2015-Feb-23 22:33N 33°46' W 118°13'0 0.0
2015-Feb-23 21:33N 33°46' W 118°13'0 0.0
2015-Feb-23 20:33N 33°46' W 118°13'0 0.0
2015-Feb-23 19:33N 33°46' W 118°13'0 0.0
2015-Feb-23 18:33N 33°46' W 118°13'0 0.0
2015-Feb-23 17:33N 33°46' W 118°13'0 0.0
2015-Feb-23 16:32N 33°46' W 118°13'0 0.0
2015-Feb-23 15:32N 33°46' W 118°13'0 0.0
2015-Feb-23 14:33N 33°46' W 118°13'0 0.0
2015-Feb-23 13:32N 33°46' W 118°13'0 0.0
2015-Feb-23 12:27N 33°46' W 118°13'0 0.0
2015-Feb-23 11:33N 33°46' W 118°13'0 0.0
2015-Feb-23 10:32N 33°46' W 118°13'0 0.0
2015-Feb-23 09:30N 33°46' W 118°13'0 0.0
2015-Feb-23 08:33N 33°46' W 118°13'0 0.0
2015-Feb-23 07:33N 33°46' W 118°13'0 0.0
2015-Feb-23 06:33N 33°46' W 118°13'0 0.0
2015-Feb-23 05:33N 33°46' W 118°13'0 0.0
2015-Feb-23 04:33N 33°46' W 118°13'0 0.0
2015-Feb-23 03:33N 33°46' W 118°13'0 0.0
2015-Feb-23 02:32N 33°46' W 118°13'0 0.0
2015-Feb-23 01:33N 33°46' W 118°13'0 0.0
2015-Feb-23 00:32N 33°46' W 118°13'0 0.0
2015-Feb-22 23:33N 33°46' W 118°13'122610481.8
2015-Feb-22 23:26N 29°22' W 094°48'12261388.1
2015-Feb-22 22:33N 33°46' W 118°13'1221146492.0
2015-Feb-22 22:33N 29°29' W 094°52'12211231.0
2015-Feb-22 21:33N 33°46' W 118°13'12144371351.5
2015-Feb-22 21:33N 29°36' W 094°57'8 7.7
2015-Feb-22 20:33N 29°43' W 095°01'120988788.8
2015-Feb-22 20:33N 33°46' W 118°13'0 0.0
2015-Feb-22 19:33N 33°46' W 118°13'12032166158.5
2015-Feb-22 19:33N 29°46' W 095°06'0 0.3
2015-Feb-22 18:33N 29°47' W 095°06'1203240662.9
2015-Feb-22 18:33N 33°46' W 118°13'0 0.0
2015-Feb-22 17:33N 33°46' W 118°13'12032166089.7
2015-Feb-22 17:33N 29°46' W 095°06'0 0.2
2015-Feb-22 16:33N 29°47' W 095°06'120310911.6
2015-Feb-22 16:27N 33°46' W 118°13'12031347.8
2015-Feb-22 15:33N 29°47' W 095°06'1203160442.1
2015-Feb-22 15:33N 33°46' W 118°13'0 0.0
2015-Feb-22 14:33N 33°46' W 118°13'120347086.1
2015-Feb-22 14:32N 29°47' W 095°06'0 0.0
2015-Feb-22 13:33N 29°47' W 095°06'1203541490.7
2015-Feb-22 13:33N 33°46' W 118°13'12031206.0
2015-Feb-22 12:33N 29°47' W 095°06'1203240662.9
2015-Feb-22 12:33N 33°46' W 118°13'12031202.3
2015-Feb-22 11:33N 29°47' W 095°06'120374688.5
2015-Feb-22 11:32N 33°46' W 118°13'0 0.0
2015-Feb-22 10:33N 33°46' W 118°13'120359341.4
2015-Feb-22 10:32N 29°47' W 095°06'12031228.6
2015-Feb-22 09:33N 33°46' W 118°13'12031443975.3
2015-Feb-22 09:33N 29°47' W 095°06'12031204.0
2015-Feb-22 08:33N 33°46' W 118°13'12032165962.9
2015-Feb-22 08:33N 29°47' W 095°06'12031203.6
2015-Feb-22 07:33N 33°46' W 118°13'12034331925.8
2015-Feb-22 07:33N 29°47' W 095°06'0 0.0
2015-Feb-22 06:33N 29°47' W 095°06'1203254824.8
2015-Feb-22 06:33N 33°46' W 118°13'0 0.0
2015-Feb-22 05:33N 33°46' W 118°13'1204206328.1
2015-Feb-22 05:33N 29°44' W 095°07'4 4.1
2015-Feb-22 04:33N 29°45' W 095°11'1200479820.9
2015-Feb-22 04:33N 33°46' W 118°13'12001202.6
2015-Feb-22 03:33N 29°45' W 095°11'1200116713.2
2015-Feb-22 03:33N 33°46' W 118°13'12001211.7
2015-Feb-22 02:33N 29°45' W 095°11'1200616915.1
2015-Feb-22 02:33N 33°46' W 118°13'0 0.0
2015-Feb-22 01:33N 33°46' W 118°13'12002159203.0
2015-Feb-22 01:33N 29°45' W 095°11'12001200.6
2015-Feb-22 00:33N 33°46' W 118°13'12002159203.0
2015-Feb-22 00:33N 29°45' W 095°11'0 0.0
2015-Feb-21 23:33N 29°45' W 095°11'1200392582.4
2015-Feb-21 23:33N 33°46' W 118°13'0 0.1
2015-Feb-21 22:33N 33°46' W 118°13'12002159293.0
2015-Feb-21 22:33N 29°45' W 095°11'0 0.0
2015-Feb-21 21:33N 29°45' W 095°11'1200227283.6
2015-Feb-21 21:33N 33°46' W 118°13'11981207.1
2015-Feb-21 20:33N 29°43' W 095°14'1198615953.3
2015-Feb-21 20:33N 33°46' W 118°13'11961198.0
2015-Feb-21 19:33N 29°44' W 095°16'1196860881.6
2015-Feb-21 19:33N 33°46' W 118°13'11961197.7
2015-Feb-21 18:33N 29°44' W 095°16'119684399.8
2015-Feb-21 18:33N 33°46' W 118°13'0 0.0
2015-Feb-21 17:33N 33°46' W 118°13'11961195.7
2015-Feb-21 16:33N 29°44' W 095°16'1196391308.2
2015-Feb-21 16:33N 33°46' W 118°13'0 0.0
2015-Feb-21 15:34N 33°46' W 118°13'1196860878.0
2015-Feb-21 15:33N 29°44' W 095°16'0 0.5
2015-Feb-21 14:33N 29°44' W 095°16'11962153051.3
2015-Feb-21 14:33N 33°46' W 118°13'12001201.0
2015-Feb-21 13:33N 29°45' W 095°11'1200332297.0
2015-Feb-21 13:33N 33°46' W 118°13'12041208.5
2015-Feb-21 12:33N 29°46' W 095°06'12041083699.3
2015-Feb-21 12:33N 33°46' W 118°13'0 0.0
2015-Feb-21 11:33N 33°46' W 118°13'120334655.6
2015-Feb-21 11:31N 29°47' W 095°06'12031242.7
2015-Feb-21 10:33N 33°46' W 118°13'120336403.0
2015-Feb-21 10:31N 29°47' W 095°06'12031248.0
2015-Feb-21 09:33N 33°46' W 118°13'120333581.0
2015-Feb-21 09:31N 29°47' W 095°06'12031248.4
2015-Feb-21 08:33N 33°46' W 118°13'120334655.6
2015-Feb-21 08:31N 29°47' W 095°06'0 0.0
2015-Feb-21 07:31N 29°47' W 095°06'1203309424.9
2015-Feb-21 07:31N 33°46' W 118°13'0 0.0
2015-Feb-21 06:33N 33°46' W 118°13'120333322.7
2015-Feb-21 06:31N 29°47' W 095°06'12031248.8
2015-Feb-21 05:33N 33°46' W 118°13'120333843.2
2015-Feb-21 05:31N 29°47' W 095°06'12031244.1
2015-Feb-21 04:33N 33°46' W 118°13'120335507.8
2015-Feb-21 04:31N 29°47' W 095°06'12031252.0
2015-Feb-21 03:34N 33°46' W 118°13'120316790.6
2015-Feb-21 03:29N 29°47' W 095°06'1 1.2
2015-Feb-21 02:34N 29°46' W 095°05'1204166743.7
2015-Feb-21 02:33N 33°46' W 118°13'0 0.0
2015-Feb-21 01:33N 33°46' W 118°13'11991078948.0
2015-Feb-21 01:33N 29°44' W 095°12'11991200.2
2015-Feb-21 00:33N 33°46' W 118°13'119822699.1
2015-Feb-21 00:30N 29°44' W 095°14'11981266.2
2015-Feb-20 23:33N 33°46' W 118°13'119822346.2
2015-Feb-20 23:30N 29°44' W 095°14'11981262.2
2015-Feb-20 22:33N 33°46' W 118°13'119823568.4
2015-Feb-20 22:30N 29°44' W 095°14'11981265.9
2015-Feb-20 21:33N 33°46' W 118°13'1198239601.7
2015-Feb-20 21:33N 29°44' W 095°14'11981200.7
2015-Feb-20 20:33N 33°46' W 118°13'1198862564.3
2015-Feb-20 20:33N 29°44' W 095°14'11981203.0
2015-Feb-20 19:33N 33°46' W 118°13'119822231.0
2015-Feb-20 19:30N 29°44' W 095°14'0 0.0
2015-Feb-20 18:33N 29°44' W 095°14'119827296.3
2015-Feb-20 18:31N 33°46' W 118°13'11981254.5
2015-Feb-20 17:33N 29°44' W 095°14'11982156407.5
2015-Feb-20 17:33N 33°46' W 118°13'0 0.0
2015-Feb-20 16:34N 33°46' W 118°13'1198253696.4
2015-Feb-20 16:33N 29°44' W 095°14'11981200.0
2015-Feb-20 15:33N 33°46' W 118°13'119676891.4
2015-Feb-20 15:32N 29°43' W 095°16'  

Dump ship's entire track history